createdAt,value
2023-03-22T00:01:37.892Z,7.87
2023-03-22T00:04:04.963Z,8.13
2023-03-22T00:06:31.841Z,12.43
2023-03-22T00:08:58.933Z,13.07
2023-03-22T00:11:26.045Z,12.68
2023-03-22T00:13:53.823Z,16.10
2023-03-22T00:16:21.968Z,16.77
2023-03-22T00:18:49.002Z,9.73
2023-03-22T00:21:16.842Z,16.20
2023-03-22T00:23:44.744Z,17.65
2023-03-22T00:26:12.603Z,14.10
2023-03-22T00:28:39.778Z,11.57
2023-03-22T00:31:07.355Z,9.40
2023-03-22T00:33:34.621Z,7.62
2023-03-22T00:36:07.182Z,8.23
2023-03-22T00:38:42.932Z,7.55
2023-03-22T00:41:13.963Z,7.03
2023-03-22T00:43:40.962Z,7.50
2023-03-22T00:46:08.625Z,7.47
2023-03-22T00:48:35.643Z,8.38
2023-03-22T00:51:02.947Z,7.47
2023-03-22T00:53:29.893Z,8.70
2023-03-22T00:55:57.388Z,7.70
2023-03-22T00:58:24.609Z,7.85
2023-03-22T01:00:51.954Z,7.62
2023-03-22T01:03:18.912Z,7.37
2023-03-22T01:05:46.487Z,7.87
2023-03-22T01:08:15.014Z,6.95
2023-03-22T01:10:42.696Z,8.23
2023-03-22T01:13:11.448Z,6.70
2023-03-22T01:15:38.478Z,9.40
2023-03-22T01:18:05.720Z,8.27
2023-03-22T01:20:32.669Z,6.82
2023-03-22T01:22:59.802Z,8.10
2023-03-22T01:25:26.686Z,9.38
2023-03-22T01:27:54.233Z,8.45
2023-03-22T01:30:21.148Z,10.00
2023-03-22T01:32:48.062Z,7.68
2023-03-22T01:35:14.961Z,8.85
2023-03-22T01:37:41.881Z,7.90
2023-03-22T01:40:10.383Z,7.95
2023-03-22T01:42:37.261Z,12.57
2023-03-22T01:45:19.049Z,9.40
2023-03-22T01:47:55.796Z,9.48
2023-03-22T01:50:23.612Z,7.57
2023-03-22T01:52:51.222Z,8.20
2023-03-22T01:55:22.878Z,8.50
2023-03-22T01:57:50.238Z,9.57
2023-03-22T02:00:19.125Z,10.55
2023-03-22T02:02:48.850Z,8.70
2023-03-22T02:05:15.948Z,12.18
2023-03-22T02:07:43.827Z,11.63
2023-03-22T02:10:13.426Z,13.25
2023-03-22T02:13:08.408Z,11.68
2023-03-22T02:15:43.045Z,12.40
2023-03-22T02:18:28.565Z,11.55
2023-03-22T02:21:13.307Z,15.60
2023-03-22T02:24:01.493Z,13.77
2023-03-22T02:26:53.540Z,9.95
2023-03-22T02:29:30.208Z,9.38
2023-03-22T02:32:04.718Z,7.37
2023-03-22T02:34:31.492Z,8.23
2023-03-22T02:39:47.591Z,5.97
2023-03-22T02:42:17.585Z,10.52
2023-03-22T02:45:11.610Z,12.18
2023-03-22T02:47:38.753Z,13.02
2023-03-22T02:50:11.461Z,11.98
2023-03-22T02:52:47.642Z,11.40
2023-03-22T02:55:21.882Z,10.80
2023-03-22T02:58:10.567Z,11.50
2023-03-22T03:00:39.084Z,12.52
2023-03-22T03:03:11.497Z,11.82
2023-03-22T03:06:02.836Z,10.25
2023-03-22T03:08:31.093Z,10.82
2023-03-22T03:10:57.949Z,9.43
2023-03-22T03:13:24.812Z,10.55
2023-03-22T03:15:55.360Z,12.93
2023-03-22T03:18:41.227Z,15.63
2023-03-22T03:21:23.315Z,15.05
2023-03-22T03:24:28.146Z,10.43
2023-03-22T03:27:01.066Z,10.88
2023-03-22T03:29:43.066Z,10.20
2023-03-22T03:32:19.967Z,9.38
2023-03-22T03:34:51.555Z,7.97
2023-03-22T03:37:39.330Z,9.07
2023-03-22T03:40:13.002Z,8.77
2023-03-22T03:42:44.510Z,8.75
2023-03-22T03:45:11.764Z,7.95
2023-03-22T03:47:38.717Z,9.10
2023-03-22T03:50:06.445Z,8.05
2023-03-22T03:52:33.312Z,7.28
2023-03-22T03:55:00.186Z,6.57
2023-03-22T03:57:27.326Z,8.45
2023-03-22T03:59:54.381Z,7.25
2023-03-22T04:02:21.256Z,5.95
2023-03-22T04:04:48.264Z,7.28
2023-03-22T04:07:15.424Z,7.20
2023-03-22T04:09:42.393Z,7.93
2023-03-22T04:12:11.892Z,6.68
2023-03-22T04:14:38.830Z,6.20
2023-03-22T04:17:05.820Z,5.85
2023-03-22T04:19:32.738Z,9.32
2023-03-22T04:22:00.421Z,8.90
2023-03-22T04:24:27.341Z,9.95
2023-03-22T04:26:54.350Z,9.25
2023-03-22T04:29:22.219Z,11.70
2023-03-22T04:31:49.079Z,12.15
2023-03-22T04:34:15.920Z,12.57
2023-03-22T04:36:42.830Z,10.48
2023-03-22T04:39:11.135Z,13.38
2023-03-22T04:41:38.244Z,10.95
2023-03-22T04:44:06.372Z,11.77
2023-03-22T04:46:35.603Z,11.52
2023-03-22T04:49:03.518Z,12.57
2023-03-22T04:51:32.219Z,10.82
2023-03-22T04:53:59.173Z,13.45
2023-03-22T04:56:27.054Z,11.23
2023-03-22T04:58:54.130Z,11.85
2023-03-22T05:01:21.143Z,11.27
2023-03-22T05:03:48.090Z,11.05
2023-03-22T05:06:15.709Z,10.18
2023-03-22T05:08:42.896Z,10.02
2023-03-22T05:11:16.794Z,8.23
2023-03-22T05:13:43.747Z,12.43
2023-03-22T05:16:11.096Z,14.13
2023-03-22T05:18:42.566Z,14.18
2023-03-22T05:21:18.077Z,9.88
2023-03-22T05:23:45.966Z,10.85
2023-03-22T05:26:16.265Z,9.85
2023-03-22T05:28:44.293Z,11.60
2023-03-22T05:31:14.737Z,9.20
2023-03-22T05:33:42.010Z,12.02
2023-03-22T05:36:09.693Z,12.23
2023-03-22T05:38:36.598Z,9.38
2023-03-22T05:41:03.742Z,10.55
2023-03-22T05:43:30.765Z,9.73
2023-03-22T05:45:57.604Z,11.20
2023-03-22T05:48:24.506Z,9.43
2023-03-22T05:50:51.434Z,9.00
2023-03-22T05:53:18.320Z,10.40
2023-03-22T05:55:45.179Z,10.77
2023-03-22T05:58:13.126Z,10.10
2023-03-22T06:00:40.498Z,9.25
2023-03-22T06:03:08.150Z,10.27
2023-03-22T06:05:36.802Z,8.77
2023-03-22T06:08:04.347Z,10.30
2023-03-22T06:10:31.294Z,8.55
2023-03-22T06:12:58.197Z,8.55
2023-03-22T06:15:25.099Z,8.05
2023-03-22T06:17:52.013Z,10.43
2023-03-22T06:20:19.624Z,9.43
2023-03-22T06:22:46.549Z,8.75
2023-03-22T06:25:14.917Z,13.35
2023-03-22T06:27:41.843Z,8.75
2023-03-22T06:30:09.189Z,9.80
2023-03-22T06:32:36.218Z,11.45
2023-03-22T06:35:03.066Z,11.15
2023-03-22T06:37:29.932Z,12.25
2023-03-22T06:39:56.790Z,14.13
2023-03-22T06:42:23.626Z,13.10
2023-03-22T06:44:50.535Z,12.18
2023-03-22T06:47:17.420Z,15.00
2023-03-22T06:49:44.256Z,13.13
2023-03-22T06:52:11.140Z,13.40
2023-03-22T06:54:37.997Z,13.90
2023-03-22T06:57:04.864Z,14.40
2023-03-22T06:59:31.728Z,15.55
2023-03-22T07:01:58.649Z,16.05
2023-03-22T07:04:25.891Z,16.73
2023-03-22T07:06:52.798Z,14.55
2023-03-22T07:09:19.894Z,20.35
2023-03-22T07:11:47.138Z,17.48
2023-03-22T07:14:14.294Z,16.73
2023-03-22T07:16:41.204Z,21.37
2023-03-22T07:19:08.162Z,21.20
2023-03-22T07:21:35.010Z,20.67
2023-03-22T07:24:01.959Z,21.17
2023-03-22T07:26:30.741Z,21.02
2023-03-22T07:28:57.625Z,19.27
2023-03-22T07:31:24.537Z,24.00
2023-03-22T07:33:52.360Z,26.08
2023-03-22T07:36:23.970Z,21.52
2023-03-22T07:38:51.824Z,22.25
2023-03-22T07:41:19.129Z,20.05
2023-03-22T07:43:55.191Z,20.85
2023-03-22T07:46:25.328Z,21.62
2023-03-22T07:48:52.219Z,21.10
2023-03-22T07:51:19.433Z,20.67
2023-03-22T07:53:46.359Z,24.02
2023-03-22T07:56:13.223Z,20.10
2023-03-22T07:58:42.559Z,22.95
2023-03-22T08:01:09.543Z,20.33
2023-03-22T08:03:37.739Z,22.15
2023-03-22T08:06:08.253Z,22.55
2023-03-22T08:08:37.066Z,22.67
2023-03-22T08:11:07.712Z,23.48
2023-03-22T08:13:37.076Z,25.70
2023-03-22T08:16:04.277Z,27.52
2023-03-22T08:18:31.546Z,22.75
2023-03-22T08:20:59.882Z,25.60
2023-03-22T08:23:40.146Z,22.13
2023-03-22T08:26:08.521Z,27.87
2023-03-22T08:28:35.662Z,22.73
2023-03-22T08:31:09.710Z,23.58
2023-03-22T08:33:36.567Z,23.35
2023-03-22T08:36:08.813Z,23.55
2023-03-22T08:38:35.794Z,23.85
2023-03-22T08:41:03.509Z,19.77
2023-03-22T08:43:30.436Z,20.02
2023-03-22T08:45:57.944Z,22.95
2023-03-22T08:48:25.206Z,19.52
2023-03-22T08:50:52.129Z,21.27
2023-03-22T08:53:19.020Z,19.90
2023-03-22T08:55:45.859Z,24.63
2023-03-22T08:58:13.628Z,21.62
2023-03-22T09:00:48.490Z,19.83
2023-03-22T09:03:16.344Z,21.17
2023-03-22T09:05:43.322Z,23.02
2023-03-22T09:08:18.256Z,23.95
2023-03-22T09:10:51.978Z,21.27
2023-03-22T09:13:19.386Z,18.12
2023-03-22T09:15:46.451Z,22.20
2023-03-22T09:18:14.116Z,20.33
2023-03-22T09:20:41.178Z,22.30
2023-03-22T09:23:08.255Z,23.25
2023-03-22T09:25:35.527Z,20.52
2023-03-22T09:28:02.704Z,22.27
2023-03-22T09:30:29.746Z,23.35
2023-03-22T09:32:57.725Z,24.48
2023-03-22T09:35:24.813Z,22.80
2023-03-22T09:37:53.742Z,23.50
2023-03-22T09:40:26.085Z,21.90
2023-03-22T09:42:55.642Z,19.67
2023-03-22T09:45:38.677Z,19.52
2023-03-22T09:48:39.783Z,16.00
2023-03-22T09:51:11.474Z,18.40
2023-03-22T09:53:41.206Z,14.90
2023-03-22T09:56:15.831Z,12.60
2023-03-22T09:59:19.974Z,17.60
2023-03-22T10:01:59.966Z,11.55
2023-03-22T10:05:30.059Z,11.93
2023-03-22T10:08:05.603Z,8.70
2023-03-22T10:10:38.153Z,10.07
2023-03-22T10:16:07.578Z,14.13
2023-03-22T10:18:37.654Z,9.35
2023-03-22T10:21:07.565Z,11.15
2023-03-22T10:23:42.245Z,9.63
2023-03-22T10:26:17.559Z,7.55
2023-03-22T10:28:45.739Z,10.23
2023-03-22T10:31:21.387Z,10.93
2023-03-22T10:33:59.109Z,8.75
2023-03-22T10:36:33.507Z,9.45
2023-03-22T10:39:07.248Z,8.18
2023-03-22T10:41:36.726Z,7.93
2023-03-22T10:44:05.315Z,7.95
2023-03-22T10:46:37.511Z,8.68
2023-03-22T10:49:05.444Z,7.35
2023-03-22T10:51:46.770Z,7.65
2023-03-22T10:54:15.637Z,7.50
2023-03-22T10:56:44.319Z,6.32
2023-03-22T10:59:49.898Z,9.70
2023-03-22T11:02:28.847Z,6.53
2023-03-22T11:04:58.813Z,9.38
2023-03-22T11:07:40.707Z,9.18
2023-03-22T11:10:10.535Z,8.95
2023-03-22T11:12:40.214Z,7.62
2023-03-22T11:15:11.520Z,5.95
2023-03-22T11:17:39.205Z,8.48
2023-03-22T11:20:07.833Z,6.82
2023-03-22T11:22:40.373Z,7.45
2023-03-22T11:25:14.524Z,8.18
2023-03-22T11:27:57.330Z,8.43
2023-03-22T11:30:27.311Z,7.32
2023-03-22T11:33:19.455Z,8.77
2023-03-22T11:35:53.531Z,6.68
2023-03-22T11:38:41.172Z,5.93
2023-03-22T11:43:48.501Z,7.70
2023-03-22T11:46:19.466Z,7.30
2023-03-22T11:48:48.221Z,6.05
2023-03-22T11:51:38.998Z,7.47
2023-03-22T11:54:10.596Z,7.00
2023-03-22T11:56:42.286Z,7.18
2023-03-22T11:59:14.573Z,3.72
2023-03-22T12:01:55.439Z,4.47
2023-03-22T12:04:27.203Z,6.90
2023-03-22T12:06:59.774Z,5.03
2023-03-22T12:09:41.400Z,5.32
2023-03-22T12:12:14.245Z,8.95
2023-03-22T12:14:51.017Z,6.55
2023-03-22T12:17:41.168Z,3.53
2023-03-22T12:20:34.387Z,5.62
2023-03-22T12:23:02.254Z,4.65
2023-03-22T12:25:34.880Z,5.93
2023-03-22T12:28:09.088Z,4.07
2023-03-22T12:30:56.510Z,4.15
2023-03-22T12:33:33.478Z,5.87
2023-03-22T12:36:03.536Z,4.20
2023-03-22T12:38:38.482Z,4.03
2023-03-22T12:41:09.758Z,5.28
2023-03-22T12:43:46.517Z,4.07
2023-03-22T12:46:26.075Z,4.07
2023-03-22T12:48:58.169Z,7.50
2023-03-22T12:51:25.249Z,4.57
2023-03-22T12:53:55.436Z,5.30
2023-03-22T12:56:25.162Z,5.03
2023-03-22T12:59:04.629Z,4.72
2023-03-22T13:01:45.812Z,5.53
2023-03-22T13:04:44.844Z,6.68
2023-03-22T13:07:32.160Z,4.70
2023-03-22T13:10:00.432Z,7.32
2023-03-22T13:12:30.567Z,6.68
2023-03-22T13:15:41.184Z,4.82
2023-03-22T13:18:38.347Z,7.40
2023-03-22T13:21:29.546Z,7.50
2023-03-22T13:24:02.278Z,5.68
2023-03-22T13:26:45.726Z,6.20
2023-03-22T13:29:20.985Z,7.90
2023-03-22T13:31:58.523Z,4.78
2023-03-22T13:34:36.301Z,5.57
2023-03-22T13:37:05.441Z,6.95
2023-03-22T13:39:34.877Z,5.82
2023-03-22T13:42:17.049Z,6.75
2023-03-22T13:44:46.230Z,7.50
2023-03-22T13:47:31.821Z,6.75
2023-03-22T13:50:02.277Z,6.03
2023-03-22T13:52:38.672Z,4.07
2023-03-22T13:55:18.511Z,7.97
2023-03-22T13:57:59.258Z,6.93
2023-03-22T14:00:34.290Z,5.43
2023-03-22T14:03:06.484Z,8.00
2023-03-22T14:05:36.689Z,6.78
2023-03-22T14:08:04.487Z,5.97
2023-03-22T14:10:44.838Z,6.22
2023-03-22T14:13:32.349Z,4.82
2023-03-22T14:16:36.229Z,5.55
2023-03-22T14:19:05.743Z,6.25
2023-03-22T14:21:39.166Z,7.53
